Culleredo, Spain
Current Conditions -  °F | °C
As of 3:00 PM on Monday 20 Oct 2014 (Local Time) from LECO Reporting Station
Clear Clear  
Wind Chill: 26°   Ceiling: Unl
Heat Index: 27°   Visibility: 6mi
Dew Point: 19°   Wind: 2mph
Humidity: 65%   Direction: NA
Pressure: 30.15"   Gusts: NA
Location:  43.29°N, 8.39°W
Report Text: LECO 201300Z VRB02KT CAVOK 26/19 Q1021 NOSIG
Loading
Personal Weather Stations






























Interactive Weather Map
Tropical Storm Tracking
New forecast layout! Learn more

10-Day Weather Forecast

Advertisements
Track Severe Weather on mobile